createdAt,value
2022-09-25T00:01:48.535Z,8.27
2022-09-25T00:04:35.708Z,8.77
2022-09-25T00:07:23.101Z,11.45
2022-09-25T00:10:10.790Z,10.30
2022-09-25T00:12:59.630Z,10.57
2022-09-25T00:15:49.178Z,10.10
2022-09-25T00:18:53.987Z,9.02
2022-09-25T00:21:41.305Z,10.70
2022-09-25T00:24:28.600Z,9.45
2022-09-25T00:27:16.459Z,10.68
2022-09-25T00:30:06.138Z,10.85
2022-09-25T00:32:53.476Z,11.63
2022-09-25T00:35:40.632Z,13.77
2022-09-25T00:38:28.576Z,10.90
2022-09-25T00:41:17.450Z,12.75
2022-09-25T00:44:44.781Z,13.73
2022-09-25T00:47:52.413Z,13.57
2022-09-25T00:50:49.645Z,14.45
2022-09-25T00:53:41.530Z,11.68
2022-09-25T00:56:33.990Z,11.73
2022-09-25T00:59:25.342Z,10.18
2022-09-25T01:02:18.797Z,9.70
2022-09-25T01:05:12.271Z,9.43
2022-09-25T01:08:02.832Z,12.30
2022-09-25T01:10:50.106Z,12.85
2022-09-25T01:13:37.264Z,15.10
2022-09-25T01:16:32.792Z,12.48
2022-09-25T01:19:43.755Z,12.02
2022-09-25T01:22:51.105Z,14.80
2022-09-25T01:26:01.690Z,14.80
2022-09-25T01:29:03.281Z,11.82
2022-09-25T01:32:03.266Z,13.55
2022-09-25T01:35:00.855Z,11.93
2022-09-25T01:37:57.299Z,12.05
2022-09-25T01:40:51.238Z,12.70
2022-09-25T01:43:42.918Z,12.10
2022-09-25T01:46:35.882Z,10.80
2022-09-25T01:49:30.458Z,11.60
2022-09-25T01:52:22.597Z,11.32
2022-09-25T01:55:19.993Z,11.35
2022-09-25T01:58:14.488Z,12.27
2022-09-25T02:01:07.310Z,12.45
2022-09-25T02:04:00.764Z,13.20
2022-09-25T02:06:51.344Z,12.68
2022-09-25T02:09:43.436Z,14.07
2022-09-25T02:12:36.355Z,12.63
2022-09-25T02:15:28.321Z,12.63
2022-09-25T02:18:36.690Z,12.90
2022-09-25T02:21:36.778Z,11.80
2022-09-25T02:24:35.179Z,14.00
2022-09-25T02:27:24.296Z,12.52
2022-09-25T02:30:12.721Z,13.13
2022-09-25T02:33:00.183Z,12.38
2022-09-25T02:35:48.145Z,14.07
2022-09-25T02:38:36.948Z,14.15
2022-09-25T02:41:43.689Z,12.07
2022-09-25T02:44:43.587Z,15.43
2022-09-25T02:47:37.142Z,15.00
2022-09-25T02:50:29.822Z,13.85
2022-09-25T02:53:24.110Z,14.02
2022-09-25T02:56:18.247Z,15.80
2022-09-25T02:59:09.252Z,14.10
2022-09-25T03:01:58.843Z,15.20
2022-09-25T03:04:49.201Z,17.88
2022-09-25T03:07:56.435Z,19.23
2022-09-25T03:10:46.267Z,13.15
2022-09-25T03:13:35.155Z,12.48
2022-09-25T03:16:32.415Z,11.25
2022-09-25T03:19:20.814Z,11.45
2022-09-25T03:22:08.194Z,9.98
2022-09-25T03:24:55.158Z,12.55
2022-09-25T03:27:42.690Z,12.00
2022-09-25T03:30:31.506Z,10.63
2022-09-25T03:33:18.566Z,10.43
2022-09-25T03:36:12.384Z,9.40
2022-09-25T03:39:00.561Z,8.48
2022-09-25T03:41:48.000Z,10.77
2022-09-25T03:44:35.236Z,9.20
2022-09-25T03:47:23.897Z,8.60
2022-09-25T03:50:11.422Z,16.23
2022-09-25T03:52:58.453Z,8.07
2022-09-25T03:55:48.652Z,9.02
2022-09-25T03:58:36.773Z,10.52
2022-09-25T04:01:26.036Z,8.65
2022-09-25T04:04:15.321Z,10.27
2022-09-25T04:07:02.331Z,9.73
2022-09-25T04:09:49.469Z,13.77
2022-09-25T04:12:36.832Z,8.23
2022-09-25T04:15:24.117Z,8.05
2022-09-25T04:18:11.300Z,9.70
2022-09-25T04:20:59.933Z,8.57
2022-09-25T04:24:07.679Z,8.05
2022-09-25T04:26:54.657Z,8.50
2022-09-25T04:29:42.524Z,9.40
2022-09-25T04:32:47.398Z,8.52
2022-09-25T04:35:34.919Z,9.07
2022-09-25T04:38:23.389Z,20.00
2022-09-25T04:41:11.256Z,7.53
2022-09-25T04:43:58.284Z,13.68
2022-09-25T04:46:45.610Z,7.63
2022-09-25T04:49:32.652Z,7.55
2022-09-25T04:52:20.932Z,8.05
2022-09-25T04:55:10.554Z,7.45
2022-09-25T04:58:00.566Z,8.02
2022-09-25T05:00:48.516Z,7.65
2022-09-25T05:03:36.023Z,8.18
2022-09-25T05:06:23.422Z,6.40
2022-09-25T05:09:11.073Z,6.38
2022-09-25T05:11:59.893Z,8.60
2022-09-25T05:14:47.303Z,6.70
2022-09-25T05:17:34.654Z,6.70
2022-09-25T05:20:21.856Z,6.85
2022-09-25T05:23:09.182Z,7.47
2022-09-25T05:25:58.244Z,7.25
2022-09-25T05:28:50.451Z,7.05
2022-09-25T05:31:38.332Z,6.97
2022-09-25T05:34:25.624Z,6.10
2022-09-25T05:37:12.673Z,7.07
2022-09-25T05:39:59.771Z,6.13
2022-09-25T05:42:46.907Z,6.03
2022-09-25T05:45:36.002Z,6.88
2022-09-25T05:48:23.476Z,7.97
2022-09-25T05:51:11.612Z,8.73
2022-09-25T05:54:00.286Z,8.93
2022-09-25T05:56:47.666Z,8.60
2022-09-25T05:59:35.025Z,8.55
2022-09-25T06:02:23.570Z,11.25
2022-09-25T06:05:11.278Z,6.85
2022-09-25T06:07:58.564Z,7.43
2022-09-25T06:10:45.940Z,8.02
2022-09-25T06:13:34.836Z,8.95
2022-09-25T06:16:23.055Z,6.07
2022-09-25T06:19:11.645Z,8.45
2022-09-25T06:21:59.001Z,8.00
2022-09-25T06:24:46.042Z,7.45
2022-09-25T06:27:33.865Z,8.77
2022-09-25T06:30:22.136Z,7.30
2022-09-25T06:33:12.980Z,9.48
2022-09-25T06:36:01.581Z,12.55
2022-09-25T06:38:49.410Z,8.15
2022-09-25T06:41:36.882Z,9.85
2022-09-25T06:44:24.021Z,9.73
2022-09-25T06:47:18.311Z,12.93
2022-09-25T06:50:08.336Z,10.43
2022-09-25T06:52:56.758Z,9.93
2022-09-25T06:55:45.344Z,9.35
2022-09-25T06:58:36.167Z,9.05
2022-09-25T07:01:23.771Z,11.65
2022-09-25T07:04:10.201Z,11.32
2022-09-25T07:06:59.130Z,10.80
2022-09-25T07:09:48.467Z,12.07
2022-09-25T07:12:35.619Z,12.52
2022-09-25T07:15:23.022Z,11.07
2022-09-25T07:18:09.979Z,9.93
2022-09-25T07:21:03.463Z,9.35
2022-09-25T07:23:52.287Z,11.38
2022-09-25T07:26:43.354Z,10.43
2022-09-25T07:29:30.698Z,12.43
2022-09-25T07:32:18.002Z,12.13
2022-09-25T07:35:05.574Z,11.20
2022-09-25T07:37:52.917Z,12.13
2022-09-25T07:40:40.137Z,12.05
2022-09-25T07:43:28.457Z,11.10
2022-09-25T07:46:15.933Z,11.13
2022-09-25T07:49:03.064Z,10.13
2022-09-25T07:51:50.185Z,10.70
2022-09-25T07:54:37.833Z,10.52
2022-09-25T07:57:25.122Z,10.32
2022-09-25T08:00:15.046Z,10.63
2022-09-25T08:03:02.917Z,8.50
2022-09-25T08:05:49.866Z,8.18
2022-09-25T08:08:37.354Z,7.43
2022-09-25T08:11:24.631Z,7.28
2022-09-25T08:14:14.426Z,6.93
2022-09-25T08:17:02.865Z,6.80
2022-09-25T08:19:50.393Z,7.13
2022-09-25T08:22:37.828Z,8.23
2022-09-25T08:25:25.070Z,7.13
2022-09-25T08:28:12.200Z,7.03
2022-09-25T08:31:00.452Z,6.55
2022-09-25T08:33:50.484Z,7.93
2022-09-25T08:36:37.809Z,8.07
2022-09-25T08:39:25.373Z,11.02
2022-09-25T08:42:21.111Z,6.50
2022-09-25T08:45:37.561Z,6.00
2022-09-25T08:48:48.293Z,4.93
2022-09-25T08:51:40.701Z,6.80
2022-09-25T08:54:29.792Z,5.03
2022-09-25T08:57:29.438Z,5.50
2022-09-25T09:00:21.812Z,5.93
2022-09-25T09:03:13.751Z,6.28
2022-09-25T09:06:05.016Z,5.20
2022-09-25T09:09:04.998Z,6.00
2022-09-25T09:11:58.760Z,5.65
2022-09-25T09:14:50.789Z,5.30
2022-09-25T09:17:43.176Z,5.90
2022-09-25T09:20:38.643Z,4.65
2022-09-25T09:23:34.512Z,4.38
2022-09-25T09:26:32.343Z,6.05
2022-09-25T09:29:40.265Z,8.43
2022-09-25T09:32:59.343Z,6.88
2022-09-25T09:36:01.338Z,5.32
2022-09-25T09:39:00.372Z,6.28
2022-09-25T09:42:01.727Z,5.53
2022-09-25T09:45:02.096Z,4.80
2022-09-25T09:47:59.426Z,5.07
2022-09-25T09:50:52.851Z,4.40
2022-09-25T09:53:45.015Z,3.97
2022-09-25T09:56:35.539Z,3.97
2022-09-25T09:59:31.523Z,4.85
2022-09-25T10:02:37.854Z,4.25
2022-09-25T10:05:28.316Z,4.22
2022-09-25T10:08:17.127Z,4.45
2022-09-25T10:11:15.371Z,3.47
2022-09-25T10:14:05.765Z,3.67
2022-09-25T10:16:55.115Z,4.20
2022-09-25T10:19:50.631Z,4.15
2022-09-25T10:22:41.987Z,3.35
2022-09-25T10:25:40.461Z,3.40
2022-09-25T10:28:30.680Z,3.10
2022-09-25T10:31:21.098Z,3.30
2022-09-25T10:34:24.307Z,4.07
2022-09-25T10:37:21.165Z,2.90
2022-09-25T10:40:24.799Z,3.05
2022-09-25T10:43:23.659Z,2.88
2022-09-25T10:46:16.302Z,3.20
2022-09-25T10:49:36.597Z,3.08
2022-09-25T10:52:24.008Z,2.88
2022-09-25T10:55:17.473Z,4.32
2022-09-25T10:58:27.126Z,2.88
2022-09-25T11:01:17.008Z,3.03
2022-09-25T11:04:13.182Z,2.63
2022-09-25T11:07:07.159Z,3.92
2022-09-25T11:09:59.201Z,2.70
2022-09-25T11:12:47.925Z,2.50
2022-09-25T11:15:39.407Z,2.47
2022-09-25T11:18:41.035Z,3.65
2022-09-25T11:21:34.908Z,2.60
2022-09-25T11:24:30.799Z,3.10
2022-09-25T11:27:25.715Z,2.72
2022-09-25T11:30:18.007Z,2.85
2022-09-25T11:33:13.879Z,2.97
2022-09-25T11:36:07.404Z,2.83
2022-09-25T11:39:15.175Z,2.55
2022-09-25T11:42:10.829Z,2.85
2022-09-25T11:45:09.224Z,2.50
2022-09-25T11:48:02.255Z,2.80
2022-09-25T11:51:14.170Z,2.95
2022-09-25T11:54:32.412Z,2.83
2022-09-25T11:57:34.631Z,3.17
2022-09-25T12:00:26.344Z,3.13
2022-09-25T12:03:32.885Z,3.25
2022-09-25T12:06:53.283Z,2.60
2022-09-25T12:10:05.171Z,2.70
2022-09-25T12:13:03.311Z,2.67
2022-09-25T12:16:02.322Z,2.72
2022-09-25T12:19:13.809Z,3.47
2022-09-25T12:22:09.013Z,2.60
2022-09-25T12:25:07.061Z,2.75
2022-09-25T12:28:03.256Z,3.42
2022-09-25T12:31:05.396Z,2.70
2022-09-25T12:34:00.946Z,2.58
2022-09-25T12:36:54.334Z,2.70
2022-09-25T12:39:46.133Z,2.58
2022-09-25T12:42:44.879Z,2.50
2022-09-25T12:45:39.990Z,3.05
2022-09-25T12:48:35.571Z,2.65
2022-09-25T12:51:27.573Z,3.08
2022-09-25T12:54:26.178Z,5.43
2022-09-25T12:57:20.335Z,3.63
2022-09-25T13:00:19.056Z,3.83
2022-09-25T13:03:17.666Z,3.72
2022-09-25T13:06:11.583Z,5.50
2022-09-25T13:09:04.549Z,3.05
2022-09-25T13:11:57.398Z,3.35
2022-09-25T13:14:52.289Z,3.72
2022-09-25T13:17:40.419Z,5.43
2022-09-25T13:20:50.237Z,3.65
2022-09-25T13:23:40.642Z,4.13
2022-09-25T13:26:28.032Z,5.18
2022-09-25T13:29:24.273Z,5.50
2022-09-25T13:32:19.015Z,6.18
2022-09-25T13:35:18.683Z,7.03
2022-09-25T13:38:38.632Z,6.55
2022-09-25T13:41:25.624Z,8.25
2022-09-25T13:45:06.316Z,7.50
2022-09-25T13:48:01.768Z,7.22
2022-09-25T13:51:27.778Z,10.50
2022-09-25T13:54:29.314Z,9.27
2022-09-25T13:57:17.035Z,6.63
2022-09-25T14:00:06.919Z,8.10
2022-09-25T14:03:01.008Z,6.63
2022-09-25T14:05:48.223Z,6.35
2022-09-25T14:08:36.327Z,6.13
2022-09-25T14:11:31.351Z,6.60
2022-09-25T14:14:32.328Z,6.18
2022-09-25T14:17:21.328Z,6.30
2022-09-25T14:20:35.127Z,6.32
2022-09-25T14:23:27.272Z,6.47
2022-09-25T14:26:22.243Z,6.78
2022-09-25T14:29:18.957Z,7.57
2022-09-25T14:32:53.354Z,7.13
2022-09-25T14:35:37.083Z,6.22
2022-09-25T14:38:48.558Z,6.18
2022-09-25T14:42:27.242Z,6.10
2022-09-25T14:45:53.947Z,6.00
2022-09-25T14:48:46.048Z,5.63
2022-09-25T14:51:41.034Z,7.13
2022-09-25T14:54:33.068Z,5.57
2022-09-25T14:57:28.667Z,6.20
2022-09-25T15:00:24.253Z,5.13
2022-09-25T15:03:15.844Z,5.50
2022-09-25T15:06:03.321Z,5.47
2022-09-25T15:08:50.354Z,4.93
2022-09-25T15:11:43.142Z,4.97
2022-09-25T15:14:30.278Z,4.20
2022-09-25T15:17:23.576Z,6.18
2022-09-25T15:20:17.154Z,5.40
2022-09-25T15:23:07.514Z,5.47
2022-09-25T15:25:57.106Z,3.97
2022-09-25T15:28:44.409Z,3.45
2022-09-25T15:31:37.630Z,3.38
2022-09-25T15:34:29.960Z,3.83
2022-09-25T15:37:26.425Z,3.65
2022-09-25T15:40:25.764Z,3.10
2022-09-25T15:43:16.086Z,4.38
2022-09-25T15:46:35.105Z,3.10
2022-09-25T15:49:28.209Z,3.15
2022-09-25T15:52:23.411Z,5.40
2022-09-25T15:55:14.642Z,3.00
2022-09-25T15:58:14.398Z,4.80
2022-09-25T16:01:21.522Z,3.05
2022-09-25T16:04:29.210Z,4.45
2022-09-25T16:07:28.972Z,6.90
2022-09-25T16:10:34.512Z,6.30
2022-09-25T16:13:25.879Z,5.85
2022-09-25T16:16:28.444Z,4.03
2022-09-25T16:19:33.444Z,3.28
2022-09-25T16:22:25.071Z,3.55
2022-09-25T16:25:25.844Z,2.83
2022-09-25T16:28:19.549Z,3.63
2022-09-25T16:31:09.169Z,5.07
2022-09-25T16:33:57.782Z,5.80
2022-09-25T16:36:48.508Z,3.08
2022-09-25T16:39:39.062Z,3.72
2022-09-25T16:42:35.728Z,3.05
2022-09-25T16:45:29.616Z,5.63
2022-09-25T16:48:32.755Z,3.08
2022-09-25T16:51:26.862Z,3.15
2022-09-25T16:54:16.284Z,5.40
2022-09-25T16:57:04.894Z,3.15
2022-09-25T16:59:53.274Z,5.53
2022-09-25T17:02:44.357Z,7.20
2022-09-25T17:05:32.953Z,4.35
2022-09-25T17:08:23.917Z,5.78
2022-09-25T17:11:12.074Z,8.73
2022-09-25T17:14:00.837Z,9.38
2022-09-25T17:16:47.963Z,9.43
2022-09-25T17:19:35.185Z,9.20
2022-09-25T17:22:24.753Z,9.57
2022-09-25T17:25:24.929Z,6.75
2022-09-25T17:28:13.323Z,4.03
2022-09-25T17:31:02.501Z,6.68
2022-09-25T17:33:51.109Z,5.95
2022-09-25T17:36:38.195Z,9.10
2022-09-25T17:39:25.504Z,7.25
2022-09-25T17:42:13.257Z,6.55
2022-09-25T17:45:00.357Z,5.72
2022-09-25T17:47:48.916Z,8.38
2022-09-25T17:50:36.629Z,6.80
2022-09-25T17:53:26.026Z,4.40
2022-09-25T17:56:14.072Z,5.35
2022-09-25T17:59:02.398Z,6.03
2022-09-25T18:01:49.633Z,4.78
2022-09-25T18:04:38.357Z,4.05
2022-09-25T18:07:28.671Z,4.10
2022-09-25T18:10:18.706Z,7.88
2022-09-25T18:13:07.048Z,5.00
2022-09-25T18:15:57.068Z,4.63
2022-09-25T18:19:02.332Z,3.50
2022-09-25T18:22:08.442Z,4.45
2022-09-25T18:24:57.383Z,3.95
2022-09-25T18:27:45.255Z,3.42
2022-09-25T18:30:33.013Z,3.28
2022-09-25T18:33:21.945Z,3.63
2022-09-25T18:36:09.504Z,4.50
2022-09-25T18:38:58.126Z,3.05
2022-09-25T18:41:45.328Z,3.10
2022-09-25T18:44:38.497Z,3.42
2022-09-25T18:47:28.853Z,3.17
2022-09-25T18:50:20.504Z,5.35
2022-09-25T18:53:07.945Z,3.40
2022-09-25T18:55:58.218Z,4.78
2022-09-25T18:58:45.536Z,8.43
2022-09-25T19:01:32.720Z,7.80
2022-09-25T19:04:20.856Z,5.38
2022-09-25T19:07:08.038Z,9.50
2022-09-25T19:09:57.665Z,4.90
2022-09-25T19:12:46.888Z,5.05
2022-09-25T19:15:34.080Z,5.97
2022-09-25T19:18:21.908Z,4.70
2022-09-25T19:21:08.912Z,7.28
2022-09-25T19:23:55.969Z,4.18
2022-09-25T19:26:44.296Z,4.85
2022-09-25T19:29:35.768Z,4.97
2022-09-25T19:32:24.396Z,6.65
2022-09-25T19:35:11.950Z,7.43
2022-09-25T19:37:59.356Z,5.13
2022-09-25T19:40:46.843Z,4.00
2022-09-25T19:43:36.281Z,10.13
2022-09-25T19:46:25.609Z,5.63
2022-09-25T19:49:13.655Z,4.68
2022-09-25T19:52:01.345Z,6.30
2022-09-25T19:54:48.872Z,4.38
2022-09-25T19:57:36.788Z,5.35
2022-09-25T20:00:24.086Z,5.55
2022-09-25T20:03:13.176Z,5.30
2022-09-25T20:06:02.824Z,4.28
2022-09-25T20:08:50.181Z,4.45
2022-09-25T20:11:37.411Z,5.00
2022-09-25T20:14:26.321Z,5.13
2022-09-25T20:17:13.715Z,9.25
2022-09-25T20:20:02.925Z,7.43
2022-09-25T20:22:50.122Z,5.70
2022-09-25T20:25:38.004Z,4.65
2022-09-25T20:28:25.372Z,4.30
2022-09-25T20:31:16.426Z,4.28
2022-09-25T20:34:03.427Z,11.05
2022-09-25T20:36:51.984Z,4.45
2022-09-25T20:39:39.449Z,5.93
2022-09-25T20:42:26.885Z,4.85
2022-09-25T20:45:14.211Z,5.90
2022-09-25T20:48:01.581Z,5.43
2022-09-25T20:50:51.316Z,4.32
2022-09-25T20:53:40.891Z,4.82
2022-09-25T20:56:29.662Z,4.53
2022-09-25T20:59:18.165Z,4.38
2022-09-25T21:02:06.599Z,4.50
2022-09-25T21:04:53.767Z,4.13
2022-09-25T21:07:41.393Z,5.20
2022-09-25T21:10:29.844Z,4.07
2022-09-25T21:13:16.952Z,5.32
2022-09-25T21:16:05.758Z,5.85
2022-09-25T21:18:55.051Z,7.88
2022-09-25T21:21:42.743Z,7.07
2022-09-25T21:24:30.475Z,5.15
2022-09-25T21:27:19.243Z,3.80
2022-09-25T21:30:07.832Z,6.75
2022-09-25T21:32:54.784Z,4.22
2022-09-25T21:35:42.113Z,6.28
2022-09-25T21:38:29.667Z,5.45
2022-09-25T21:41:19.200Z,3.78
2022-09-25T21:44:13.551Z,4.47
2022-09-25T21:47:01.408Z,5.63
2022-09-25T21:49:48.988Z,4.05
2022-09-25T21:52:36.183Z,5.35
2022-09-25T21:55:23.410Z,3.83
2022-09-25T21:58:10.392Z,4.53
2022-09-25T22:01:07.006Z,6.10
2022-09-25T22:03:56.512Z,3.47
2022-09-25T22:06:47.152Z,2.92
2022-09-25T22:09:34.566Z,3.58
2022-09-25T22:12:21.838Z,4.05
2022-09-25T22:15:10.935Z,5.32
2022-09-25T22:17:59.414Z,5.57
2022-09-25T22:20:46.415Z,4.18
2022-09-25T22:23:33.548Z,4.38
2022-09-25T22:26:22.611Z,5.22
2022-09-25T22:29:10.389Z,5.15
2022-09-25T22:31:57.541Z,9.05
2022-09-25T22:34:46.466Z,6.10
2022-09-25T22:37:33.934Z,8.45
2022-09-25T22:40:21.252Z,6.72
2022-09-25T22:43:08.314Z,7.05
2022-09-25T22:45:55.818Z,6.75
2022-09-25T22:48:43.139Z,4.97
2022-09-25T22:51:31.994Z,25.02
2022-09-25T22:54:19.481Z,7.20
2022-09-25T22:57:06.543Z,5.82
2022-09-25T22:59:53.578Z,4.90
2022-09-25T23:02:40.740Z,15.40
2022-09-25T23:05:28.144Z,8.35
2022-09-25T23:08:16.737Z,4.93
2022-09-25T23:11:08.537Z,4.55
2022-09-25T23:13:59.853Z,3.80
2022-09-25T23:16:48.963Z,3.88
2022-09-25T23:19:35.960Z,4.22
2022-09-25T23:22:23.064Z,6.72
2022-09-25T23:25:11.898Z,6.25
2022-09-25T23:27:59.804Z,4.82
2022-09-25T23:30:47.142Z,6.38
2022-09-25T23:33:34.752Z,9.27
2022-09-25T23:36:25.226Z,4.43
2022-09-25T23:39:17.805Z,3.83
2022-09-25T23:42:06.927Z,3.92
2022-09-25T23:44:54.020Z,5.75
2022-09-25T23:47:41.355Z,6.80
2022-09-25T23:50:28.476Z,4.10
2022-09-25T23:53:15.442Z,5.55
2022-09-25T23:56:08.081Z,9.10
2022-09-25T23:58:57.963Z,6.18
